Time;durP1;ratioP1;P1;durP2;ratioP2;P2;SDS_P1;SDS_P2;PMS_P1;PMS_P2;Temp;Humidity;BMP_temperature;BMP_pressure;BME280_temperature;BME280_humidity;BME280_pressure;Samples;Min_cycle;Max_cycle;Signal;HPM_P1;HPM_P2
2022/01/20 00:03:30;;;;;;;27.05;9.85;;;;;;;0.69;62.73;92905.81;4979867;28;20057;-90
2022/01/20 00:25:50;;;;;;;20.77;8.90;;;;;;;0.65;62.30;92868.59;4964252;28;20070;-89
2022/01/20 00:26:44;;;;;;;23.88;8.13;;;;;;;0.92;62.10;92910.31;5011264;28;20049;-89
2022/01/20 00:29:19;;;;;;;23.20;7.50;;;;;;;0.89;62.03;92913.34;4997043;28;20550;-90
2022/01/20 00:37:37;;;;;;;20.30;7.95;;;;;;;0.80;60.78;92897.38;5012356;28;20045;-89
2022/01/20 00:40:12;;;;;;;26.55;7.82;;;;;;;0.90;60.96;92913.13;4992964;28;20506;-89
2022/01/20 00:42:40;;;;;;;17.88;6.57;;;;;;;0.85;60.78;92904.44;4995749;28;20080;-89
2022/01/20 00:45:31;;;;;;;;;;;;;;;;;;;;;
2022/01/20 00:47:57;;;;;;;19.10;6.53;;;;;;;1.11;60.12;92936.88;4981192;28;20042;-89
2022/01/20 00:50:35;;;;;;;19.00;7.50;;;;;;;0.86;60.28;92895.69;4995689;28;20033;-89
2022/01/20 00:53:24;;;;;;;17.20;6.60;;;;;;;0.96;60.08;92917.41;5008744;28;20046;-90
2022/01/20 00:56:00;;;;;;;14.52;6.03;;;;;;;0.70;59.88;92868.72;5004743;28;20045;-89
2022/01/20 00:58:32;;;;;;;21.23;7.15;;;;;;;0.73;59.90;92869.09;5005634;28;20076;-88
2022/01/20 01:01:15;;;;;;;17.23;5.93;;;;;;;0.77;59.51;92861.72;5015081;28;20453;-89
2022/01/20 01:03:44;;;;;;;17.33;6.45;;;;;;;0.75;60.04;92864.50;5016523;28;20088;-88
2022/01/20 01:09:15;;;;;;;;;;;;;;;1.24;59.41;92924.59;5015580;28;20042;-89
2022/01/20 01:11:57;;;;;;;22.30;6.75;;;;;;;0.99;58.83;92880.88;5010519;28;20366;-89
2022/01/20 01:14:34;;;;;;;19.73;6.82;;;;;;;0.86;58.27;92859.63;5008495;28;20125;-89
2022/01/20 01:20:08;;;;;;;19.00;6.85;;;;;;;1.19;57.62;92895.31;5004914;28;20046;-88
2022/01/20 01:22:34;;;;;;;20.15;7.10;;;;;;;1.09;57.50;92869.28;4996462;28;20065;-88
2022/01/20 01:25:14;;;;;;;24.35;8.45;;;;;;;0.99;57.72;92849.94;5010892;28;20050;-88
2022/01/20 01:27:53;;;;;;;33.83;12.60;;;;;;;1.07;59.55;92851.44;4991491;28;20104;-89
2022/01/20 01:30:50;;;;;;;29.90;11.32;;;;;;;0.96;60.22;92840.06;5017947;28;20026;-88
2022/01/20 01:33:17;;;;;;;36.92;13.52;;;;;;;1.24;60.74;92903.97;5031102;28;20041;-88
2022/01/20 01:35:55;;;;;;;37.13;12.52;;;;;;;0.93;61.08;92855.97;5026256;28;20415;-89
2022/01/20 01:38:41;;;;;;;33.70;12.13;;;;;;;0.94;61.38;92860.09;5010436;28;20049;-88
2022/01/20 01:41:25;;;;;;;;;;;;;;;;;;;;;
2022/01/20 01:44:01;;;;;;;32.70;12.25;;;;;;;0.97;61.69;92882.13;5022244;28;20025;-89
2022/01/20 01:46:39;;;;;;;;;;;;;;;;;;;;;
2022/01/20 01:52:06;;;;;;;27.15;10.00;;;;;;;0.82;61.19;92846.41;4993879;28;20041;-87
2022/01/20 01:54:35;;;;;;;21.38;9.05;;;;;;;0.96;61.77;92876.16;5010482;28;20487;-88
2022/01/20 01:57:10;;;;;;;21.63;7.30;;;;;;;1.06;60.88;92896.28;4999468;28;20123;-88
2022/01/20 01:59:50;;;;;;;19.25;6.70;;;;;;;1.00;60.99;92890.19;5011949;28;20038;-88
2022/01/20 02:02:22;;;;;;;15.90;6.07;;;;;;;0.98;60.95;92899.16;5011651;28;20079;-88
2022/01/20 02:05:03;;;;;;;;;;;;;;;;;;;;;
2022/01/20 02:19:43;;;;;;;23.17;9.50;;;;;;;1.10;60.08;92866.44;5020070;28;20046;-90
2022/01/20 02:22:43;;;;;;;27.70;10.02;;;;;;;1.07;60.22;92851.44;4987410;28;20049;-89
2022/01/20 02:25:26;;;;;;;36.25;11.52;;;;;;;1.37;60.39;92887.50;4994670;28;20086;-90
2022/01/20 02:27:54;;;;;;;29.88;11.52;;;;;;;1.19;60.22;92848.88;4978157;28;20042;-89
2022/01/20 02:30:36;;;;;;;34.00;12.07;;;;;;;1.09;60.19;92833.16;5010666;28;20039;-89
2022/01/20 02:33:19;;;;;;;34.22;10.82;;;;;;;1.19;60.73;92848.88;5011557;28;20094;-88
2022/01/20 02:35:56;;;;;;;29.65;9.73;;;;;;;1.17;60.81;92846.53;5011562;28;20037;-90
2022/01/20 02:38:51;;;;;;;22.45;9.32;;;;;;;0.82;60.80;92794.84;4999865;28;20025;-89
2022/01/20 02:47:13;;;;;;;21.05;9.18;;;;;;;1.26;60.89;92854.72;4991013;28;20053;-89
2022/01/20 02:49:51;;;;;;;24.42;8.63;;;;;;;1.25;60.56;92853.16;4991003;28;20491;-88
2022/01/20 02:52:19;;;;;;;25.85;9.98;;;;;;;0.79;61.05;92782.41;5009985;28;20033;-89
2022/01/20 02:54:50;;;;;;;19.52;7.47;;;;;;;0.78;61.03;92781.59;4999916;28;20026;-89
2022/01/20 02:57:34;;;;;;;19.60;7.93;;;;;;;0.81;61.13;92794.06;5009327;28;20033;-89
2022/01/20 03:00:05;;;;;;;19.38;7.93;;;;;;;0.72;61.12;92772.19;4981828;28;20052;-89
2022/01/20 03:02:36;;;;;;;23.70;8.80;;;;;;;0.64;61.12;92766.56;5010156;28;20056;-89
2022/01/20 03:05:26;;;;;;;16.85;7.25;;;;;;;1.05;61.20;92850.84;5012466;28;20030;-90
2022/01/20 03:08:06;;;;;;;19.90;7.43;;;;;;;0.84;60.91;92816.03;4995920;28;20136;-89
2022/01/20 03:10:49;;;;;;;25.48;7.60;;;;;;;0.57;60.84;92771.78;5011119;28;20026;-89
2022/01/20 03:13:22;;;;;;;22.17;8.63;;;;;;;0.56;60.73;92772.78;4991160;28;20503;-89
2022/01/20 03:15:52;;;;;;;19.25;7.82;;;;;;;0.56;60.62;92772.78;5009818;28;20544;-89
2022/01/20 03:18:21;;;;;;;17.73;7.93;;;;;;;0.64;61.03;92795.66;5006468;28;20038;-89
2022/01/20 03:21:00;;;;;;;19.38;7.53;;;;;;;0.49;61.35;92762.56;4997804;28;20068;-89
2022/01/20 03:23:55;;;;;;;23.17;8.65;;;;;;;0.69;61.54;92798.38;5006374;28;20030;-89
2022/01/20 03:26:28;;;;;;;21.27;8.27;;;;;;;0.34;61.34;92764.75;5008223;28;20445;-88
2022/01/20 03:29:01;;;;;;;17.20;7.25;;;;;;;0.49;62.11;92793.47;5007627;28;20065;-88
2022/01/20 03:31:38;;;;;;;18.88;6.35;;;;;;;0.66;61.43;92823.81;5006827;28;20061;-90
2022/01/20 03:34:25;;;;;;;16.92;6.82;;;;;;;0.14;60.74;92750.31;4978813;28;20120;-89
2022/01/20 03:37:03;;;;;;;17.52;6.97;;;;;;;0.20;59.86;92746.88;5003828;28;20042;-89
2022/01/20 03:39:50;;;;;;;20.02;6.00;;;;;;;0.30;59.00;92745.56;4994827;28;20038;-89
2022/01/20 03:42:28;;;;;;;22.20;7.95;;;;;;;0.65;58.96;92788.72;4993888;28;20049;-89
2022/01/20 03:44:54;;;;;;;22.75;9.25;;;;;;;0.62;59.85;92790.72;4994261;28;20045;-89
2022/01/20 03:47:35;;;;;;;;;;;;;;;;;;;;;
2022/01/20 03:50:59;;;;;;;10.07;4.47;;;;;;;0.52;57.96;92756.97;5026681;28;20092;-89
2022/01/20 03:52:55;;;;;;;20.35;8.23;;;;;;;0.64;58.81;92774.28;4993711;28;20454;-89
2022/01/20 03:55:23;;;;;;;12.45;4.97;;;;;;;0.45;57.67;92738.25;4994802;28;20040;-90
2022/01/20 03:58:06;;;;;;;7.43;3.50;;;;;;;0.57;54.43;92730.56;5009383;28;20398;-89
2022/01/20 04:01:00;;;;;;;10.48;3.30;;;;;;;0.86;53.32;92731.56;4990202;28;20050;-89
2022/01/20 04:04:06;;;;;;;8.63;3.28;;;;;;;0.98;52.75;92734.94;5007638;28;20128;-90
2022/01/20 04:06:47;;;;;;;6.25;2.75;;;;;;;1.03;51.86;92722.16;5001582;28;20042;-90
2022/01/20 04:09:21;;;;;;;6.65;2.78;;;;;;;1.18;51.26;92718.38;5010799;28;20049;-89
2022/01/20 04:12:00;;;;;;;7.05;3.30;;;;;;;1.24;51.65;92732.97;4993524;28;20050;-89
2022/01/20 04:14:32;;;;;;;6.65;2.92;;;;;;;1.52;50.86;92765.06;5010354;28;20129;-90
2022/01/20 04:17:03;;;;;;;6.77;2.80;;;;;;;1.35;50.91;92719.31;5006629;28;20050;-89
2022/01/20 04:19:33;;;;;;;5.50;2.50;;;;;;;1.53;50.98;92757.13;4990561;28;20065;-89
2022/01/20 04:22:24;;;;;;;;;;;;;;;;;;;;;
2022/01/20 04:25:21;;;;;;;6.65;2.90;;;;;;;1.71;49.86;92730.38;4997105;28;20038;-89
2022/01/20 04:27:51;;;;;;;6.65;2.78;;;;;;;1.61;50.50;92730.19;4983888;28;20043;-89
2022/01/20 04:30:30;;;;;;;8.17;2.83;;;;;;;1.59;50.03;92729.63;5008708;28;20038;-89
2022/01/20 04:32:59;;;;;;;7.47;2.97;;;;;;;1.51;49.94;92722.19;4991553;28;20042;-88
2022/01/20 04:35:28;;;;;;;6.22;2.63;;;;;;;1.61;50.44;92748.25;5007663;28;20044;-89
2022/01/20 04:37:59;;;;;;;7.95;3.03;;;;;;;1.43;50.16;92707.84;5009738;28;20038;-90
2022/01/20 04:40:26;;;;;;;5.93;2.55;;;;;;;1.48;50.32;92712.34;5016729;28;20030;-89
2022/01/20 04:43:30;;;;;;;4.78;2.35;;;;;;;1.59;49.32;92709.75;5008196;28;20489;-90
2022/01/20 04:46:06;;;;;;;5.60;2.65;;;;;;;1.52;50.00;92716.06;5000875;28;20399;-90
2022/01/20 04:57:21;;;;;;;6.10;2.35;;;;;;;1.22;51.13;92724.69;5010607;28;20073;-91
2022/01/20 05:00:16;;;;;;;5.20;2.25;;;;;;;1.41;50.47;92759.66;4988659;28;20137;-90
2022/01/20 05:03:23;;;;;;;6.18;2.45;;;;;;;1.13;50.55;92731.94;5004154;28;20053;-90
2022/01/20 05:06:04;;;;;;;4.72;2.10;;;;;;;1.19;50.74;92740.56;4983505;28;20568;-90
2022/01/20 05:08:42;;;;;;;5.75;2.53;;;;;;;0.97;50.83;92711.97;4997921;28;20507;-89
2022/01/20 05:11:10;;;;;;;6.25;2.40;;;;;;;1.24;50.28;92756.19;4995869;28;20053;-90
2022/01/20 05:13:49;;;;;;;5.70;2.47;;;;;;;0.96;50.45;92707.81;5029393;28;20226;-90
2022/01/20 05:16:37;;;;;;;;;;;;;;;;;;;;;
2022/01/20 05:19:21;;;;;;;;;;;;;;;;;;;;;
2022/01/20 05:22:04;;;;;;;6.18;2.30;;;;;;;1.25;49.66;92731.97;5013952;28;20038;-89
2022/01/20 05:24:49;;;;;;;4.50;2.28;;;;;;;1.09;49.42;92709.41;4996904;28;20077;-88
2022/01/20 05:27:25;;;;;;;5.78;2.63;;;;;;;1.06;49.40;92715.00;5008504;28;20040;-88
2022/01/20 05:29:59;;;;;;;3.85;1.83;;;;;;;1.07;49.96;92717.34;4991733;28;20034;-89
2022/01/20 05:32:38;;;;;;;4.43;1.95;;;;;;;1.15;48.31;92713.66;5006563;28;20042;-89
2022/01/20 05:35:34;;;;;;;5.50;2.15;;;;;;;1.53;48.65;92759.69;5008018;28;20611;-89
2022/01/20 05:38:12;;;;;;;6.20;2.22;;;;;;;1.47;48.84;92746.91;4992710;28;20041;-89
2022/01/20 05:40:50;;;;;;;5.22;1.98;;;;;;;1.47;48.89;92752.06;4999649;28;20046;-89
2022/01/20 05:43:33;;;;;;;4.13;1.80;;;;;;;1.28;48.78;92741.81;4993594;28;20029;-89
2022/01/20 05:46:25;;;;;;;4.43;1.80;;;;;;;1.09;48.93;92717.91;5007802;28;20037;-90
2022/01/20 05:49:20;;;;;;;5.18;2.00;;;;;;;1.00;49.33;92706.38;5010407;28;20049;-90
2022/01/20 05:52:07;;;;;;;;;;;;;;;1.38;49.53;92785.13;4999509;28;20394;-91
2022/01/20 05:55:04;;;;;;;;;;;;;;;;;;;;;
2022/01/20 05:57:51;;;;;;;2.88;1.48;;;;;;;0.82;49.76;92725.25;5000217;28;20050;-90
2022/01/20 06:00:42;;;;;;;;;;;;;;;;;;;;;
2022/01/20 06:07:25;;;;;;;3.50;1.50;;;;;;;0.59;50.12;92715.69;4993610;28;20391;-91
2022/01/20 06:10:31;;;;;;;3.35;1.75;;;;;;;0.57;50.31;92726.19;5016035;28;20543;-91
2022/01/20 06:13:33;;;;;;;;;;;;;;;;;;;;;
2022/01/20 06:16:25;;;;;;;6.00;2.63;;;;;;;0.72;51.31;92735.31;5022288;28;20417;-90
2022/01/20 06:19:09;;;;;;;13.43;4.35;;;;;;;0.57;52.09;92728.78;4995946;28;20038;-91
2022/01/20 06:21:48;;;;;;;6.80;3.28;;;;;;;0.46;52.16;92729.50;4998160;28;20045;-91
2022/01/20 06:24:14;;;;;;;6.03;2.08;;;;;;;0.90;51.84;92801.47;5008386;28;20125;-90
2022/01/20 06:26:40;;;;;;;4.03;1.92;;;;;;;0.91;51.27;92815.94;5017915;28;20060;-90
2022/01/20 06:29:06;;;;;;;3.78;1.98;;;;;;;0.69;50.98;92772.59;5017324;28;20068;-90
2022/01/20 06:31:35;;;;;;;2.60;1.40;;;;;;;0.79;50.34;92787.56;5009398;28;20029;-90
2022/01/20 06:34:03;;;;;;;4.75;1.85;;;;;;;0.82;50.04;92787.13;5034858;28;20033;-90
2022/01/20 06:36:31;;;;;;;3.58;1.60;;;;;;;0.88;50.16;92791.41;5017873;28;20108;-90
2022/01/20 06:38:59;;;;;;;3.13;1.60;;;;;;;0.56;49.61;92734.94;5017592;28;20052;-91
2022/01/20 06:41:28;;;;;;;3.28;1.70;;;;;;;1.01;49.24;92798.16;5022750;28;20030;-90
2022/01/20 06:44:07;;;;;;;5.60;1.80;;;;;;;1.00;49.56;92794.78;5013947;28;20030;-90
2022/01/20 06:46:33;;;;;;;6.63;2.03;;;;;;;0.80;49.10;92753.03;4997397;28;20137;-90
2022/01/20 06:49:19;;;;;;;5.70;2.30;;;;;;;1.26;49.76;92821.19;4999683;28;20037;-90
2022/01/20 06:52:12;;;;;;;2.95;1.63;;;;;;;1.02;49.43;92797.94;5025397;28;20053;-90
2022/01/20 06:54:40;;;;;;;8.00;3.13;;;;;;;0.97;51.04;92768.69;5012731;28;20033;-90
2022/01/20 06:57:06;;;;;;;6.40;2.65;;;;;;;1.27;50.63;92825.38;5033795;28;20036;-90
2022/01/20 06:59:50;;;;;;;14.52;4.47;;;;;;;0.94;51.36;92756.22;5033318;28;20037;-88
2022/01/20 07:02:16;;;;;;;9.18;4.30;;;;;;;0.77;52.19;92743.19;4986875;28;20395;-89
2022/01/20 07:04:50;;;;;;;8.68;3.85;;;;;;;0.83;52.57;92771.44;4995826;28;20033;-89
2022/01/20 07:07:20;;;;;;;12.30;4.32;;;;;;;0.88;52.44;92799.13;4999563;28;20034;-88
2022/01/20 07:10:04;;;;;;;11.00;3.20;;;;;;;0.66;52.38;92777.44;5011076;28;20096;-88
2022/01/20 07:12:47;;;;;;;7.55;3.20;;;;;;;0.53;52.45;92768.84;5016793;28;20601;-89
2022/01/20 07:15:17;;;;;;;7.40;2.30;;;;;;;0.34;52.44;92757.03;4995921;28;20038;-88
2022/01/20 07:17:51;;;;;;;9.63;2.50;;;;;;;0.40;51.51;92756.13;4995329;28;20084;-89
2022/01/20 07:20:20;;;;;;;3.90;2.13;;;;;;;1.72;49.30;92800.88;4978399;28;20084;-90
2022/01/20 07:23:09;;;;;;;8.43;1.80;;;;;;;3.93;43.01;92747.72;5028672;28;20132;-90
2022/01/20 07:25:58;;;;;;;6.03;2.05;;;;;;;6.30;39.72;92761.88;5031037;28;20044;-89
2022/01/20 07:29:02;;;;;;;6.38;1.83;;;;;;;8.23;36.22;92759.03;5000437;28;20034;-89
2022/01/20 07:31:50;;;;;;;4.15;1.70;;;;;;;9.56;32.74;92763.66;5011974;28;20460;-90
2022/01/20 07:34:25;;;;;;;8.55;2.10;;;;;;;10.99;30.09;92792.97;5011474;28;20145;-90
2022/01/20 07:36:59;;;;;;;4.70;1.77;;;;;;;12.01;27.88;92746.19;4995540;28;20046;-89
2022/01/20 07:39:41;;;;;;;3.45;1.60;;;;;;;12.94;27.17;92756.56;5011082;28;20487;-90
2022/01/20 07:42:22;;;;;;;5.18;2.22;;;;;;;14.15;25.33;92793.63;5011050;28;20091;-91
2022/01/20 07:45:07;;;;;;;5.80;2.33;;;;;;;14.53;23.70;92758.22;5025255;28;20099;-91
2022/01/20 07:48:16;;;;;;;6.53;2.27;;;;;;;15.98;23.25;92794.22;4998086;28;20041;-90
2022/01/20 07:50:59;;;;;;;4.28;1.75;;;;;;;16.54;21.44;92753.91;5008789;28;20339;-90
2022/01/20 07:53:40;;;;;;;4.15;1.83;;;;;;;17.62;20.51;92756.16;4993022;28;20031;-90
2022/01/20 07:56:21;;;;;;;3.45;1.80;;;;;;;18.50;19.47;92786.09;4991179;28;20066;-91
2022/01/20 07:59:08;;;;;;;4.07;2.08;;;;;;;18.90;18.65;92737.81;4993062;28;20101;-90
2022/01/20 08:04:47;;;;;;;10.85;5.45;;;;;;;18.75;20.80;92760.41;5010738;28;20065;-90
2022/01/20 08:07:25;;;;;;;11.23;4.88;;;;;;;19.19;19.99;92758.03;4980221;28;20092;-90
2022/01/20 08:10:12;;;;;;;4.68;2.25;;;;;;;20.43;17.26;92745.97;5010760;28;20057;-90
2022/01/20 08:13:03;;;;;;;;;;;;;;;;;;;;;
2022/01/20 08:16:08;;;;;;;6.10;1.73;;;;;;;21.50;15.20;92774.41;5010408;28;20108;-90
2022/01/20 08:18:45;;;;;;;8.55;2.13;;;;;;;22.12;15.24;92745.22;5010411;28;20121;-91
2022/01/20 08:21:18;;;;;;;3.75;1.90;;;;;;;23.15;14.50;92753.56;5010518;28;20045;-91
2022/01/20 08:24:15;;;;;;;4.05;1.90;;;;;;;23.83;14.36;92777.81;5010660;28;20065;-91
2022/01/20 08:26:51;;;;;;;3.20;1.60;;;;;;;24.36;12.73;92771.56;5013722;28;20061;-90
2022/01/20 08:29:38;;;;;;;3.63;1.63;;;;;;;25.20;12.33;92796.94;4998771;28;20538;-91
2022/01/20 08:32:24;;;;;;;;;;;;;;;;;;;;;
2022/01/20 08:35:22;;;;;;;3.40;1.60;;;;;;;25.57;12.18;92757.78;5006789;28;20491;-91
2022/01/20 08:38:06;;;;;;;4.05;2.00;;;;;;;26.45;11.84;92763.94;5014587;28;20034;-91
2022/01/20 08:40:51;;;;;;;3.65;1.73;;;;;;;26.79;11.89;92810.09;5013928;28;20046;-91
2022/01/20 08:43:38;;;;;;;4.75;1.92;;;;;;;26.67;11.15;92783.59;4998348;28;20125;-90
2022/01/20 08:46:24;;;;;;;4.25;1.77;;;;;;;25.66;11.84;92760.88;5015073;28;20052;-91
2022/01/20 08:49:20;;;;;;;4.38;2.10;;;;;;;25.84;11.74;92759.06;5013969;28;20058;-91
2022/01/20 08:51:56;;;;;;;19.08;8.90;;;;;;;24.80;14.91;92762.88;4984800;28;20133;-91
2022/01/20 08:54:47;;;;;;;12.43;6.22;;;;;;;26.14;13.55;92803.69;4999393;28;20065;-91
2022/01/20 08:57:39;;;;;;;5.70;2.60;;;;;;;26.89;11.53;92765.63;4991171;28;20045;-91
2022/01/20 09:00:12;;;;;;;13.45;6.38;;;;;;;26.49;12.82;92743.25;5013498;28;20517;-91
2022/01/20 09:03:02;;;;;;;38.13;12.25;;;;;;;24.42;15.47;92764.78;4999982;28;20042;-91
2022/01/20 09:05:33;;;;;;;15.48;7.65;;;;;;;23.02;15.50;92752.19;4984360;28;20052;-91
2022/01/20 09:08:10;;;;;;;11.32;6.72;;;;;;;23.64;15.90;92792.03;4982953;28;20470;-90
2022/01/20 09:10:41;;;;;;;21.80;8.70;;;;;;;21.91;17.96;92790.09;4997691;28;20042;-90
2022/01/20 09:16:02;;;;;;;15.07;7.45;;;;;;;18.97;20.04;92812.31;4993645;28;20506;-90
2022/01/20 09:18:48;;;;;;;16.23;8.15;;;;;;;18.06;21.44;92823.59;4999155;28;20041;-90
2022/01/20 09:21:21;;;;;;;17.95;9.07;;;;;;;17.65;22.85;92830.41;4997302;28;20041;-91
2022/01/20 09:23:48;;;;;;;10.07;5.13;;;;;;;16.83;21.20;92827.22;4982088;28;20049;-91
2022/01/20 09:26:15;;;;;;;4.32;2.30;;;;;;;16.89;20.50;92846.31;4996688;28;20438;-91
2022/01/20 09:28:42;;;;;;;2.90;1.50;;;;;;;17.01;20.04;92839.28;4997545;28;20041;-91
2022/01/20 09:31:11;;;;;;;13.60;5.78;;;;;;;16.18;22.25;92836.94;5013581;28;20515;-92
2022/01/20 09:33:39;;;;;;;9.20;4.10;;;;;;;15.36;22.55;92834.81;5013262;28;20069;-91
2022/01/20 09:36:09;;;;;;;9.95;5.30;;;;;;;15.85;22.80;92823.44;4981190;28;20119;-91
2022/01/20 09:38:37;;;;;;;10.88;6.13;;;;;;;15.13;24.81;92828.88;4996217;28;20598;-91
2022/01/20 09:41:10;;;;;;;25.52;11.57;;;;;;;14.65;27.64;92821.69;5005675;28;20053;-91
2022/01/20 09:43:36;;;;;;;12.23;5.65;;;;;;;14.43;24.54;92793.47;5013548;28;20491;-92
2022/01/20 09:46:05;;;;;;;22.27;11.35;;;;;;;13.72;29.79;92811.75;4997067;28;20386;-91
2022/01/20 09:48:40;;;;;;;18.15;9.13;;;;;;;12.87;29.46;92795.59;4997559;28;20049;-92
2022/01/20 09:51:19;;;;;;;8.82;4.47;;;;;;;12.83;26.09;92774.34;4999440;28;20036;-92
2022/01/20 09:54:02;;;;;;;18.75;9.50;;;;;;;13.81;27.99;92817.88;5013504;28;20475;-91
2022/01/20 09:56:30;;;;;;;14.75;7.30;;;;;;;13.30;27.19;92803.16;5016218;28;20046;-91
2022/01/20 09:58:59;;;;;;;6.80;2.30;;;;;;;13.81;23.69;92809.19;5000237;28;20491;-91
2022/01/20 10:01:48;;;;;;;14.48;6.63;;;;;;;13.43;28.02;92833.91;4997549;28;20275;-91
2022/01/20 10:04:52;;;;;;;9.00;4.28;;;;;;;13.44;25.78;92767.13;5024842;28;20430;-90
2022/01/20 10:07:35;;;;;;;26.05;10.00;;;;;;;12.42;32.17;92813.72;5032000;28;20168;-91
2022/01/20 10:10:08;;;;;;;22.25;9.82;;;;;;;12.42;30.57;92774.34;4993568;28;20046;-91
2022/01/20 10:13:03;;;;;;;30.48;12.18;;;;;;;11.91;32.88;92838.16;4994903;28;20122;-91
2022/01/20 10:16:12;;;;;;;11.02;5.25;;;;;;;12.16;28.72;92829.91;4979658;28;20042;-91
2022/01/20 10:18:54;;;;;;;7.65;3.22;;;;;;;12.55;25.54;92806.94;4986321;28;20038;-91
2022/01/20 10:21:40;;;;;;;;;;;;;;;;;;;;;
2022/01/20 10:24:29;;;;;;;17.25;8.95;;;;;;;12.99;29.00;92802.97;5012705;28;20152;-90
2022/01/20 10:27:37;;;;;;;;;;;;;;;;;;;;;
2022/01/20 10:30:07;;;;;;;17.08;8.00;;;;;;;11.06;31.02;92755.94;5014036;28;20398;-91
2022/01/20 10:32:53;;;;;;;6.45;3.40;;;;;;;11.48;27.13;92789.16;4998092;28;20044;-91
2022/01/20 10:38:54;;;;;;;8.02;3.67;;;;;;;11.26;26.44;92750.44;5015835;28;20073;-91
2022/01/20 10:41:36;;;;;;;12.30;4.22;;;;;;;11.19;27.32;92735.06;4993817;28;20117;-91
2022/01/20 10:44:17;;;;;;;11.52;5.15;;;;;;;11.86;27.18;92726.97;4978740;28;20061;-91
2022/01/20 10:47:36;;;;;;;17.35;8.48;;;;;;;11.74;30.20;92745.00;4992420;28;20097;-91
2022/01/20 10:50:22;;;;;;;11.18;4.65;;;;;;;12.32;26.51;92779.78;5002223;28;20032;-91
2022/01/20 10:52:54;;;;;;;5.85;2.88;;;;;;;12.46;24.52;92718.34;5028932;28;20049;-92
2022/01/20 10:55:35;;;;;;;17.55;9.02;;;;;;;13.52;28.78;92776.91;5028965;28;20065;-91
2022/01/20 10:58:23;;;;;;;;;;;;;;;;;;;;;
2022/01/20 11:01:28;;;;;;;;;;;;;;;13.97;27.17;92785.94;5014632;28;20054;-92
2022/01/20 11:04:10;;;;;;;9.27;4.55;;;;;;;12.47;26.25;92750.63;5003020;28;20012;-90
2022/01/20 11:07:09;;;;;;;11.90;5.78;;;;;;;11.68;27.57;92698.94;4996794;28;20057;-91
2022/01/20 11:09:45;;;;;;;8.02;4.07;;;;;;;12.16;26.18;92717.06;4987112;28;20483;-92
2022/01/20 11:12:41;;;;;;;2.45;1.27;;;;;;;13.14;22.03;92689.66;4984588;28;20475;-92
2022/01/20 11:15:18;;;;;;;8.32;3.45;;;;;;;13.21;24.08;92747.06;5012036;28;20380;-92
2022/01/20 11:17:56;;;;;;;6.20;3.08;;;;;;;13.26;22.82;92718.03;5009013;28;20119;-92
2022/01/20 11:20:54;;;;;;;4.72;2.30;;;;;;;13.98;23.02;92713.78;5000174;28;20037;-93
2022/01/20 11:24:03;;;;;;;5.90;2.30;;;;;;;13.63;22.16;92706.47;4996123;28;20112;-92
2022/01/20 11:27:10;;;;;;;;;;;;;;;;;;;;;
2022/01/20 11:30:05;;;;;;;11.90;4.60;;;;;;;12.37;25.93;92682.56;5009836;28;20032;-92
2022/01/20 11:33:30;;;;;;;;;;;;;;;;;;;;;
2022/01/20 11:36:09;;;;;;;7.13;3.08;;;;;;;12.55;22.95;92686.94;5007902;28;20548;-91
2022/01/20 11:39:01;;;;;;;5.57;2.72;;;;;;;12.05;24.07;92671.06;4996699;28;20117;-92
2022/01/20 11:41:52;;;;;;;8.70;3.55;;;;;;;12.71;25.21;92682.91;5010252;28;20054;-92
2022/01/20 11:44:35;;;;;;;6.32;1.83;;;;;;;12.56;21.66;92670.09;4998261;28;20037;-93
2022/01/20 11:47:34;;;;;;;5.80;2.28;;;;;;;12.25;23.33;92702.19;5015991;28;20033;-93
2022/01/20 11:50:15;;;;;;;;;;;;;;;;;;;;;
2022/01/20 11:53:29;;;;;;;4.43;2.20;;;;;;;12.96;22.32;92657.19;5001452;28;20073;-92
2022/01/20 11:55:58;;;;;;;2.88;1.50;;;;;;;12.86;21.74;92683.69;5011150;28;20037;-93
2022/01/20 11:58:35;;;;;;;7.55;3.22;;;;;;;12.36;24.78;92696.75;5001080;28;20124;-91
2022/01/20 12:01:14;;;;;;;8.30;3.40;;;;;;;11.82;24.32;92668.28;5034422;28;20041;-91
2022/01/20 12:03:57;;;;;;;7.78;2.97;;;;;;;11.79;25.05;92654.97;5011387;28;20076;-91
2022/01/20 12:06:47;;;;;;;4.45;1.80;;;;;;;12.83;22.61;92629.09;5011593;28;20471;-92
2022/01/20 12:09:37;;;;;;;3.55;1.80;;;;;;;12.12;22.67;92642.59;5028705;28;20068;-89
2022/01/20 12:12:26;;;;;;;6.15;2.55;;;;;;;12.01;25.56;92641.25;5016379;28;20117;-89
2022/01/20 12:14:52;;;;;;;5.70;2.53;;;;;;;11.37;24.47;92615.56;5013247;28;20133;-89
2022/01/20 12:17:18;;;;;;;5.40;2.50;;;;;;;11.60;23.73;92599.97;5016983;28;20112;-90
2022/01/20 12:19:56;;;;;;;5.25;2.47;;;;;;;11.82;23.39;92673.53;4998239;28;20140;-89
2022/01/20 12:22:22;;;;;;;3.15;1.63;;;;;;;10.70;23.72;92594.81;5013690;28;20100;-90
2022/01/20 12:25:02;;;;;;;;;;;;;;;;;;;;;
2022/01/20 12:27:41;;;;;;;5.30;2.50;;;;;;;11.43;23.41;92634.59;5012150;28;20037;-92
2022/01/20 12:49:09;;;;;;;3.75;1.80;;;;;;;12.27;22.70;92647.56;5035258;23;20469;-73
2022/01/20 12:51:53;;;;;;;2.67;1.10;;;;;;;12.73;22.29;92643.25;5004047;28;20042;-73
2022/01/20 12:54:26;;;;;;;5.57;1.60;;;;;;;12.86;21.00;92633.78;5013007;28;20038;-73
2022/01/20 12:56:55;;;;;;;4.43;1.70;;;;;;;12.24;21.24;92636.88;5011895;28;20042;-73
2022/01/20 12:59:25;;;;;;;2.83;1.20;;;;;;;12.17;21.56;92637.25;5012990;28;20030;-73
2022/01/20 13:01:53;;;;;;;2.13;1.20;;;;;;;11.56;21.70;92627.84;4994094;28;20061;-73
2022/01/20 13:04:23;;;;;;;2.75;1.27;;;;;;;11.07;22.71;92619.41;5012834;28;20501;-73
2022/01/20 13:06:54;;;;;;;5.97;1.40;;;;;;;11.06;22.11;92620.50;4995010;28;20099;-73
2022/01/20 13:09:23;;;;;;;2.22;1.15;;;;;;;12.05;22.26;92622.00;4979940;28;20030;-73
2022/01/20 13:12:08;;;;;;;1.92;0.98;;;;;;;11.66;21.45;92612.72;5008884;28;20127;-73
2022/01/20 13:14:45;;;;;;;1.67;0.90;;;;;;;11.59;21.74;92607.03;4995464;28;20046;-73
2022/01/20 13:17:18;;;;;;;3.15;1.30;;;;;;;11.62;22.31;92611.72;5013363;28;20483;-73
2022/01/20 13:19:45;;;;;;;;;;;;;;;12.18;21.42;92607.34;4995098;28;20411;-73
2022/01/20 13:25:07;;;;;;;2.47;1.15;;;;;;;12.31;21.52;92589.22;5011345;28;20112;-74
2022/01/20 13:27:34;;;;;;;2.20;1.13;;;;;;;11.93;20.67;92584.97;5011913;28;20029;-74
2022/01/20 13:30:00;;;;;;;2.47;1.10;;;;;;;12.07;21.42;92574.50;5008265;28;20439;-73
2022/01/20 13:32:25;;;;;;;2.72;0.95;;;;;;;11.37;21.62;92576.25;5010198;28;20034;-73
2022/01/20 13:35:02;;;;;;;2.13;0.88;;;;;;;11.03;21.63;92579.13;4992726;28;20041;-73
2022/01/20 13:37:32;;;;;;;2.00;0.80;;;;;;;11.32;21.22;92581.56;5012656;28;20041;-73
2022/01/20 13:39:59;;;;;;;1.45;0.95;;;;;;;11.16;21.59;92577.63;5000090;28;20408;-74
2022/01/20 13:42:33;;;;;;;1.98;0.93;;;;;;;11.29;21.96;92579.53;4975938;28;20556;-75
2022/01/20 13:45:14;;;;;;;2.00;1.10;;;;;;;11.72;21.26;92595.03;4994949;28;20038;-74
2022/01/20 13:47:47;;;;;;;1.48;1.00;;;;;;;11.80;20.41;92586.50;5011106;28;20050;-73
2022/01/20 13:50:37;;;;;;;1.33;0.75;;;;;;;11.58;20.71;92578.50;5006762;28;20029;-73
2022/01/20 13:53:19;;;;;;;1.80;1.00;;;;;;;11.32;21.69;92586.78;5013927;28;20034;-73
2022/01/20 13:55:47;;;;;;;2.00;0.80;;;;;;;11.46;21.89;92585.00;5006610;28;20364;-72
2022/01/20 13:58:30;;;;;;;2.05;0.95;;;;;;;11.38;21.07;92585.66;5017817;28;20086;-74
2022/01/20 14:00:58;;;;;;;2.15;1.00;;;;;;;11.28;20.91;92585.03;5027638;28;20376;-74
2022/01/20 14:03:24;;;;;;;1.83;1.10;;;;;;;11.32;22.32;92578.16;5032503;28;20030;-74
2022/01/20 14:05:55;;;;;;;1.10;0.73;;;;;;;11.61;21.29;92589.19;4994276;28;20030;-74
2022/01/20 14:08:24;;;;;;;1.15;0.80;;;;;;;11.96;22.28;92581.00;4986707;28;20092;-75
2022/01/20 14:10:50;;;;;;;1.42;0.80;;;;;;;12.02;20.67;92587.69;5009547;28;20117;-74
2022/01/20 14:13:16;;;;;;;0.70;0.60;;;;;;;11.94;19.93;92580.50;5002161;28;20037;-74
2022/01/20 14:15:41;;;;;;;0.55;0.55;;;;;;;12.35;20.26;92569.19;5023073;28;20086;-75
2022/01/20 14:18:07;;;;;;;1.17;0.70;;;;;;;12.24;19.39;92574.66;4987126;28;20042;-73
2022/01/20 14:20:36;;;;;;;0.73;0.60;;;;;;;11.70;19.93;92565.69;5008456;28;20041;-74
2022/01/20 14:23:05;;;;;;;1.33;0.73;;;;;;;11.85;21.30;92569.88;4993121;28;20034;-75
2022/01/20 14:25:33;;;;;;;1.08;0.70;;;;;;;11.51;20.81;92565.00;4993824;28;20499;-75
2022/01/20 14:27:59;;;;;;;1.20;0.70;;;;;;;11.46;21.26;92569.28;4993631;28;20046;-75
2022/01/20 14:30:27;;;;;;;1.17;0.75;;;;;;;11.27;20.49;92563.31;5002447;28;20049;-75
2022/01/20 14:32:53;;;;;;;0.88;0.60;;;;;;;10.97;20.42;92561.97;5031089;28;20124;-75
2022/01/20 14:35:20;;;;;;;0.90;0.77;;;;;;;10.93;21.36;92559.13;4989014;28;20388;-74
2022/01/20 14:37:48;;;;;;;1.70;0.77;;;;;;;10.88;21.25;92553.97;4992063;28;20066;-73